TAF and METAR

No METAR available for Auki Gwaunaru'u Airport

TAF for Auki Gwaunaru'u Airport

TAF AGGA 222310Z 2300/2324 14010KT 9999 -SHDZ FEW018 BKN030 PROB40 INTER 2300/2306 5000 SHRA BKN017
Report created 23. mai 01:10

between 23. mai 02:00 - 23. mai 02:00

wind 10 knots from SE (140°) visibility > 10km light drizzle showers some clouds (~25% cover) at 1800 feet broken clouds (~75% cover) at 3000 feet
Auki Gwaunaru'u Airport in Solomon Islands

Latest 5 airports